Esperance, Australia
Current Conditions -  °F | °C
As of 5:00 AM on Tuesday 25 Nov 2014 (Local Time) from YESP Reporting Station
Clear Clear  
Wind Chill: 52°   Ceiling: Unl
Heat Index: 52°   Visibility: 6mi
Dew Point: 45°   Wind: 7mph
Humidity: 76%   Direction: 70°ENE
Pressure: 30.24"   Gusts: NA
Location:  33.87°S, 121.89°E
Report Text: YESP 242100Z AUTO 07006KT 9999 // NCD 11/07 Q1024
Loading
Personal Weather Stations






























Interactive Weather Map New forecast layout! Learn more

10-Day Weather Forecast

Advertisements
Track Severe Weather on mobile